Time;durP1;ratioP1;P1;durP2;ratioP2;P2;SDS_P1;SDS_P2;PMS_P1;PMS_P2;Temp;Humidity;BMP_temperature;BMP_pressure;BME280_temperature;BME280_humidity;BME280_pressure;Samples;Min_cycle;Max_cycle;Signal;HPM_P1;HPM_P2
2022/03/02 00:02:01;;;;;;;;;;;;;;;-1.41;56.24;102220.64;1760510;80;25798;-71
2022/03/02 00:04:26;;;;;;;;;;;;;;;-1.42;56.30;102216.22;1761050;80;83978;-71
2022/03/02 00:06:52;;;;;;;;;;;;;;;-1.44;56.36;102216.59;1760497;80;26284;-71
2022/03/02 00:09:18;;;;;;;;;;;;;;;-1.45;56.38;102221.39;1761040;80;83945;-70
2022/03/02 00:11:43;;;;;;;;;;;;;;;-1.47;56.45;102217.81;1763167;79;27346;-71
2022/03/02 00:14:09;;;;;;;;;;;;;;;-1.46;56.50;102224.86;1764779;79;25887;-70
2022/03/02 00:16:35;;;;;;;;;;;;;;;-1.47;56.46;102215.19;1731771;81;84171;-71
2022/03/02 00:19:02;;;;;;;;;;;;;;;-1.53;56.52;102219.84;1696738;83;25737;-71
2022/03/02 00:21:28;;;;;;;;;;;;;;;-1.60;56.68;102218.28;1694252;82;83828;-71
2022/03/02 00:23:54;;;;;;;;;;;;;;;-1.66;56.77;102215.93;1726844;81;27423;-70
2022/03/02 00:26:20;;;;;;;;;;;;;;;-1.70;56.81;102205.27;1727047;81;25926;-71
2022/03/02 00:28:46;;;;;;;;;;;;;;;-1.70;56.82;102203.95;1725852;81;84850;-71
2022/03/02 00:31:12;;;;;;;;;;;;;;;-1.73;56.85;102198.18;1697018;83;25978;-70
2022/03/02 00:33:38;;;;;;;;;;;;;;;-1.74;56.99;102194.19;1726601;81;83780;-69
2022/03/02 00:36:04;;;;;;;;;;;;;;;-1.74;57.06;102191.14;1694765;83;27469;-70
2022/03/02 00:38:30;;;;;;;;;;;;;;;-1.76;57.12;102186.26;1699429;82;25983;-69
2022/03/02 00:40:56;;;;;;;;;;;;;;;-1.77;57.14;102182.27;1697585;83;83834;-70
2022/03/02 00:43:21;;;;;;;;;;;;;;;-1.79;57.13;102184.84;1726947;81;26335;-70
2022/03/02 00:45:47;;;;;;;;;;;;;;;-1.79;57.24;102184.84;1698026;82;84081;-70
2022/03/02 00:48:13;;;;;;;;;;;;;;;-1.80;57.31;102186.11;1706371;82;26464;-72
2022/03/02 00:50:52;;;;;;;;;;;;;;;-1.83;57.35;102185.59;1704946;82;25859;-70
2022/03/02 00:53:17;;;;;;;;;;;;;;;-1.87;57.41;102184.13;1689904;83;83942;-70
2022/03/02 00:55:44;;;;;;;;;;;;;;;-1.89;57.39;102180.56;1732536;81;45055;-69
2022/03/02 00:58:10;;;;;;;;;;;;;;;-1.92;57.42;102176.53;1692851;83;83904;-70
2022/03/02 01:00:36;;;;;;;;;;;;;;;-1.96;57.48;102170.28;1703562;82;27353;-72
2022/03/02 01:03:02;;;;;;;;;;;;;;;-1.99;57.59;102173.70;1696277;83;84022;-70
2022/03/02 01:05:28;;;;;;;;;;;;;;;-2.00;57.68;102169.72;1698935;83;25765;-71
2022/03/02 01:07:54;;;;;;;;;;;;;;;-2.02;57.71;102166.14;1700484;83;25942;-72
2022/03/02 01:10:21;;;;;;;;;;;;;;;-2.05;57.78;102161.69;1695891;83;83802;-72
2022/03/02 01:12:48;;;;;;;;;;;;;;;-2.07;57.84;102148.03;1698386;82;27447;-72
2022/03/02 01:15:14;;;;;;;;;;;;;;;-2.08;57.91;102150.19;1698261;83;85024;-71
2022/03/02 01:17:40;;;;;;;;;;;;;;;-2.10;58.06;102153.19;1696220;83;25943;-72
2022/03/02 01:20:08;;;;;;;;;;;;;;;-2.14;58.01;102149.98;1726534;82;25856;-72
2022/03/02 01:22:35;;;;;;;;;;;;;;;-2.19;58.00;102143.27;1728737;81;83936;-70
2022/03/02 01:25:01;;;;;;;;;;;;;;;-2.23;58.10;102146.64;1725838;81;28218;-71
2022/03/02 01:27:27;;;;;;;;;;;;;;;-2.24;58.18;102151.42;1695246;83;84065;-71
2022/03/02 01:29:53;;;;;;;;;;;;;;;-2.24;58.14;102149.22;1725239;81;25809;-72
2022/03/02 01:32:19;;;;;;;;;;;;;;;-2.25;58.23;102143.49;1727922;81;25981;-69
2022/03/02 01:34:45;;;;;;;;;;;;;;;-2.25;58.30;102140.87;1727383;81;84167;-72
2022/03/02 01:37:11;;;;;;;;;;;;;;;-2.26;58.37;102125.95;1728076;81;26895;-70
2022/03/02 01:39:37;;;;;;;;;;;;;;;-2.26;58.44;102133.41;1722657;81;84978;-70
2022/03/02 01:42:05;;;;;;;;;;;;;;;-2.27;58.51;102135.56;1727771;81;25782;-71
2022/03/02 01:44:32;;;;;;;;;;;;;;;-2.29;58.50;102139.45;1703457;81;25835;-71
2022/03/02 01:46:58;;;;;;;;;;;;;;;-2.31;58.57;102138.52;1730181;81;84745;-71
2022/03/02 01:49:24;;;;;;;;;;;;;;;-2.36;58.56;102139.20;1730665;81;27492;-71
2022/03/02 01:51:50;;;;;;;;;;;;;;;-2.41;58.63;102131.17;1700361;83;84174;-71
2022/03/02 01:54:15;;;;;;;;;;;;;;;-2.41;58.68;102130.28;1729346;81;25872;-71
2022/03/02 01:56:41;;;;;;;;;;;;;;;-2.39;58.76;102133.43;1728703;81;25788;-71
2022/03/02 01:59:07;;;;;;;;;;;;;;;-2.38;58.78;102133.01;1727095;81;84128;-70
2022/03/02 02:01:33;;;;;;;;;;;;;;;-2.37;58.88;102129.54;1731470;81;27403;-70
2022/03/02 02:04:00;;;;;;;;;;;;;;;-2.39;58.84;102124.66;1725672;81;84278;-70
2022/03/02 02:06:26;;;;;;;;;;;;;;;-2.41;58.92;102123.30;1729149;81;26584;-72
2022/03/02 02:08:52;;;;;;;;;;;;;;;-2.43;58.98;102120.15;1730650;81;26032;-69
2022/03/02 02:11:19;;;;;;;;;;;;;;;-2.45;59.02;102122.72;1725218;81;84572;-70
2022/03/02 02:13:45;;;;;;;;;;;;;;;-2.46;59.05;102118.31;1725516;81;27378;-70
2022/03/02 02:16:11;;;;;;;;;;;;;;;-2.47;59.13;102109.08;1728749;81;84746;-70
2022/03/02 02:18:37;;;;;;;;;;;;;;;-2.49;59.16;102109.45;1726720;81;25858;-72
2022/03/02 02:21:07;;;;;;;;;;;;;;;-2.49;59.15;102106.82;1727738;81;85052;-72
2022/03/02 02:23:35;;;;;;;;;;;;;;;-2.52;59.18;102100.16;1697626;82;25774;-70
2022/03/02 02:26:00;;;;;;;;;;;;;;;-2.55;59.27;102102.26;1695000;83;27392;-72
2022/03/02 02:28:27;;;;;;;;;;;;;;;-2.56;59.37;102103.52;1693903;83;83733;-73
2022/03/02 02:30:55;;;;;;;;;;;;;;;-2.60;59.43;102097.31;1722072;81;25819;-71
2022/03/02 02:33:22;;;;;;;;;;;;;;;-2.59;59.44;102100.80;1729048;81;84276;-72
2022/03/02 02:35:48;;;;;;;;;;;;;;;-2.63;59.45;102094.58;1729011;81;25795;-71
2022/03/02 02:38:14;;;;;;;;;;;;;;;-2.64;59.47;102086.23;1727517;81;27445;-71
2022/03/02 02:40:39;;;;;;;;;;;;;;;-2.65;59.58;102087.08;1697540;82;84102;-71
2022/03/02 02:43:06;;;;;;;;;;;;;;;-2.68;59.61;102081.31;1698743;82;25911;-71
2022/03/02 02:45:31;;;;;;;;;;;;;;;-2.67;59.68;102086.14;1728263;82;84185;-71
2022/03/02 02:47:58;;;;;;;;;;;;;;;-2.68;59.72;102084.36;1723489;81;25862;-71
2022/03/02 02:50:29;;;;;;;;;;;;;;;-2.68;59.68;102081.73;1729673;81;27556;-71
2022/03/02 02:52:56;;;;;;;;;;;;;;;-2.70;59.74;102084.30;1727875;81;84062;-71
2022/03/02 02:55:24;;;;;;;;;;;;;;;-2.71;59.75;102079.89;1729415;81;25826;-71
2022/03/02 02:57:52;;;;;;;;;;;;;;;-2.70;59.88;102083.41;1722150;81;84782;-71
2022/03/02 03:00:19;;;;;;;;;;;;;;;-2.73;59.87;102082.89;1727845;81;25703;-71
2022/03/02 03:02:50;;;;;;;;;;;;;;;-2.76;59.96;102074.02;1728193;81;27462;-71
2022/03/02 03:05:19;;;;;;;;;;;;;;;-2.78;60.03;102070.45;1730358;81;83689;-71
2022/03/02 03:07:46;;;;;;;;;;;;;;;-2.86;60.03;102057.50;1698026;83;25729;-71
2022/03/02 03:10:13;;;;;;;;;;;;;;;-2.84;59.95;102063.69;1724305;81;84701;-71
2022/03/02 03:12:40;;;;;;;;;;;;;;;-2.88;59.94;102056.55;1693148;83;26648;-71
2022/03/02 03:15:09;;;;;;;;;;;;;;;-2.91;60.09;102057.34;1727978;81;84128;-71
2022/03/02 03:17:35;;;;;;;;;;;;;;;-2.93;60.08;102047.64;1700250;83;25832;-71
2022/03/02 03:20:02;;;;;;;;;;;;;;;-2.96;60.00;102053.25;1698061;83;25757;-71
2022/03/02 03:22:28;;;;;;;;;;;;;;;-3.00;60.11;102046.53;1727052;81;83945;-71
2022/03/02 03:24:54;;;;;;;;;;;;;;;-3.03;60.24;102047.32;1727563;81;25788;-71
2022/03/02 03:27:19;;;;;;;;;;;;;;;-3.05;60.24;102045.07;1727734;81;84169;-71
2022/03/02 03:29:45;;;;;;;;;;;;;;;-3.07;60.37;102046.75;1697627;82;25730;-71
2022/03/02 03:32:11;;;;;;;;;;;;;;;-3.11;60.28;102044.86;1727752;81;28016;-71
2022/03/02 03:34:37;;;;;;;;;;;;;;;-3.13;60.29;102041.71;1729130;81;84109;-71
2022/03/02 03:37:03;;;;;;;;;;;;;;;-3.15;60.50;102037.72;1724736;81;25799;-71
2022/03/02 03:39:28;;;;;;;;;;;;;;;-3.16;60.37;102034.63;1727416;81;84309;-71
2022/03/02 03:41:55;;;;;;;;;;;;;;;-3.18;60.49;102030.17;1726334;81;25911;-70
2022/03/02 03:44:22;;;;;;;;;;;;;;;-3.21;60.46;102025.72;1703268;82;25725;-71
2022/03/02 03:46:48;;;;;;;;;;;;;;;-3.24;60.64;102015.54;1695194;83;83850;-72
2022/03/02 03:49:13;;;;;;;;;;;;;;;-3.24;60.74;102014.23;1696141;83;25863;-71
2022/03/02 03:51:39;;;;;;;;;;;;;;;-3.25;60.84;102009.82;1695244;82;84822;-71
2022/03/02 03:54:05;;;;;;;;;;;;;;;-3.27;60.90;102006.73;1698204;83;26725;-71
2022/03/02 03:56:31;;;;;;;;;;;;;;;-3.29;60.82;102011.45;1698643;83;25791;-71
2022/03/02 03:58:59;;;;;;;;;;;;;;;-3.31;60.92;102011.81;1729409;81;84683;-71
2022/03/02 04:01:25;;;;;;;;;;;;;;;-3.35;60.97;102004.68;1727470;81;25779;-71
2022/03/02 04:03:51;;;;;;;;;;;;;;;-3.34;60.90;102003.84;1694656;83;83948;-71
2022/03/02 04:06:17;;;;;;;;;;;;;;;-3.35;60.89;101999.02;1698320;83;26481;-71
2022/03/02 04:08:43;;;;;;;;;;;;;;;-3.36;61.07;101994.61;1730687;81;26545;-71
2022/03/02 04:11:09;;;;;;;;;;;;;;;-3.36;61.16;101996.34;1727724;81;84791;-73
2022/03/02 04:13:35;;;;;;;;;;;;;;;-3.36;61.26;101993.72;1727617;81;25709;-70
2022/03/02 04:16:00;;;;;;;;;;;;;;;-3.37;61.20;101998.49;1697301;82;83828;-71
2022/03/02 04:18:26;;;;;;;;;;;;;;;-3.40;61.26;102002.31;1698084;83;25878;-70
2022/03/02 04:20:52;;;;;;;;;;;;;;;-3.39;61.33;102000.17;1698090;83;27703;-73
2022/03/02 04:23:21;;;;;;;;;;;;;;;-3.40;61.27;101991.83;1699833;83;83944;-73
2022/03/02 04:25:48;;;;;;;;;;;;;;;-3.42;61.32;101993.09;1698339;83;26686;-73
2022/03/02 04:28:14;;;;;;;;;;;;;;;-3.41;61.44;102004.05;1699735;83;84618;-72
2022/03/02 04:30:40;;;;;;;;;;;;;;;-3.39;61.48;101998.86;1727023;81;25807;-70
2022/03/02 04:33:06;;;;;;;;;;;;;;;-3.39;61.55;101993.61;1696887;83;84839;-70
2022/03/02 04:35:32;;;;;;;;;;;;;;;-3.39;61.52;101990.99;1727819;81;25838;-71
2022/03/02 04:37:58;;;;;;;;;;;;;;;-3.39;61.41;101989.27;1728455;81;26173;-71
2022/03/02 04:40:23;;;;;;;;;;;;;;;-3.39;61.54;101990.58;1728711;81;84720;-72
2022/03/02 04:42:49;;;;;;;;;;;;;;;-3.38;61.62;101994.09;1727481;81;25931;-71
2022/03/02 04:45:16;;;;;;;;;;;;;;;-3.38;61.67;101998.02;1693985;83;85465;-72
2022/03/02 04:47:42;;;;;;;;;;;;;;;-3.40;61.69;101994.03;1728078;81;26327;-72
2022/03/02 04:50:11;;;;;;;;;;;;;;;-3.41;61.60;101988.31;1730809;82;26103;-72
2022/03/02 04:52:37;;;;;;;;;;;;;;;-3.43;61.67;101993.92;1725745;81;84209;-71
2022/03/02 04:55:06;;;;;;;;;;;;;;;-3.44;61.84;101997.38;1729311;81;26090;-71
2022/03/02 04:57:41;;;;;;;;;;;;;;;-3.47;61.77;101989.41;1727875;81;84265;-73
2022/03/02 05:00:11;;;;;;;;;;;;;;;-3.47;61.93;101993.77;1694800;82;26557;-71
2022/03/02 05:02:37;;;;;;;;;;;;;;;-3.48;61.88;101995.91;1695380;83;25803;-71
2022/03/02 05:05:04;;;;;;;;;;;;;;;-3.49;61.92;101989.78;1691910;83;84843;-71
2022/03/02 05:07:30;;;;;;;;;;;;;;;-3.49;61.91;101984.54;1706436;82;25765;-71
2022/03/02 05:09:56;;;;;;;;;;;;;;;-3.49;62.03;101984.95;1696372;83;84715;-71
2022/03/02 05:12:21;;;;;;;;;;;;;;;-3.51;62.03;101985.32;1698796;83;25840;-71
2022/03/02 05:14:49;;;;;;;;;;;;;;;-3.51;62.01;101989.25;1697437;83;25812;-70
2022/03/02 05:17:15;;;;;;;;;;;;;;;-3.53;62.02;101983.96;1721676;81;84519;-71
2022/03/02 05:19:41;;;;;;;;;;;;;;;-3.54;62.08;101984.80;1702948;82;26097;-71
2022/03/02 05:22:06;;;;;;;;;;;;;;;-3.54;62.09;101989.15;1696957;83;84204;-71
2022/03/02 05:24:32;;;;;;;;;;;;;;;-3.55;62.10;101986.05;1728821;81;25859;-71
2022/03/02 05:26:58;;;;;;;;;;;;;;;-3.55;62.16;101980.81;1695777;83;84249;-71
2022/03/02 05:29:24;;;;;;;;;;;;;;;-3.54;62.18;101979.97;1726877;81;28226;-71
2022/03/02 05:31:49;;;;;;;;;;;;;;;-3.56;62.21;101981.65;1698157;82;25868;-71
2022/03/02 05:34:15;;;;;;;;;;;;;;;-3.56;62.21;101979.92;1697825;83;84997;-71
2022/03/02 05:36:41;;;;;;;;;;;;;;;-3.54;62.27;101985.22;1703074;82;25803;-71
2022/03/02 05:39:06;;;;;;;;;;;;;;;-3.53;62.31;101979.14;1703744;82;85089;-71
2022/03/02 05:41:33;;;;;;;;;;;;;;;-3.50;62.35;101980.55;1701287;82;27373;-71
2022/03/02 05:44:00;;;;;;;;;;;;;;;-3.49;62.40;101979.72;1702336;82;25737;-71
2022/03/02 05:46:27;;;;;;;;;;;;;;;-3.47;62.41;101978.94;1729288;81;84984;-71
2022/03/02 05:48:53;;;;;;;;;;;;;;;-3.46;62.39;101995.13;1728214;81;25938;-71
2022/03/02 05:51:20;;;;;;;;;;;;;;;-3.46;62.41;101986.37;1729764;81;84315;-71
2022/03/02 05:53:46;;;;;;;;;;;;;;;-3.47;62.44;101981.97;1728844;81;27465;-71
2022/03/02 05:56:12;;;;;;;;;;;;;;;-3.47;62.39;101981.97;1727157;81;26442;-71
2022/03/02 05:58:37;;;;;;;;;;;;;;;-3.47;62.46;101982.86;1726846;81;85017;-71
2022/03/02 06:01:03;;;;;;;;;;;;;;;-3.47;62.45;101992.04;1723457;81;25898;-71
2022/03/02 06:03:29;;;;;;;;;;;;;;;-3.48;62.52;101990.25;1726324;81;85032;-71
2022/03/02 06:05:55;;;;;;;;;;;;;;;-3.48;62.46;101986.74;1724972;81;27388;-72
2022/03/02 06:08:21;;;;;;;;;;;;;;;-3.49;62.54;101981.03;1693754;83;25822;-72
2022/03/02 06:10:48;;;;;;;;;;;;;;;-3.49;62.49;101981.03;1698642;82;84107;-72
2022/03/02 06:13:14;;;;;;;;;;;;;;;-3.50;62.56;101986.69;1684590;82;26482;-72
2022/03/02 06:15:41;;;;;;;;;;;;;;;-3.50;62.71;101977.94;1676864;83;85281;-72
2022/03/02 06:18:07;;;;;;;;;;;;;;;-3.47;62.76;101983.28;1704821;83;27476;-72
2022/03/02 06:20:33;;;;;;;;;;;;;;;-3.46;62.78;101982.02;1711842;83;25872;-72
2022/03/02 06:22:59;;;;;;;;;;;;;;;-3.45;62.84;101982.91;1702680;82;84242;-71
2022/03/02 06:25:26;;;;;;;;;;;;;;;-3.46;62.78;101980.72;1710483;83;25795;-71
2022/03/02 06:27:52;;;;;;;;;;;;;;;-3.45;62.81;101981.61;1697755;82;84900;-71
2022/03/02 06:30:17;;;;;;;;;;;;;;;-3.44;62.70;101982.08;1697095;83;28001;-71
2022/03/02 06:32:43;;;;;;;;;;;;;;;-3.44;63.02;101986.91;1700125;83;25916;-71
2022/03/02 06:35:09;;;;;;;;;;;;;;;-3.41;63.03;101991.36;1699876;82;84878;-71
2022/03/02 06:37:35;;;;;;;;;;;;;;;-3.38;63.11;101992.36;1713209;82;26416;-71
2022/03/02 06:40:03;;;;;;;;;;;;;;;-3.35;63.14;101989.84;1695211;82;83999;-71
2022/03/02 06:42:38;;;;;;;;;;;;;;;-3.30;63.26;101992.63;1700235;82;28523;-71
2022/03/02 06:45:12;;;;;;;;;;;;;;;-3.26;63.22;101987.95;1678423;83;85224;-73
2022/03/02 06:47:41;;;;;;;;;;;;;;;-3.20;63.30;101987.27;1703715;82;25819;-71
2022/03/02 06:50:10;;;;;;;;;;;;;;;-3.18;63.30;101989.11;1687633;83;25936;-72
2022/03/02 06:52:45;;;;;;;;;;;;;;;-3.13;63.32;101987.95;1710990;82;84905;-69
2022/03/02 06:55:15;;;;;;;;;;;;;;;-3.11;63.37;101981.92;1680679;83;27452;-71
2022/03/02 06:57:45;;;;;;;;;;;;;;;-3.07;63.37;101975.05;1698228;83;84874;-71
2022/03/02 07:00:16;;;;;;;;;;;;;;;-3.00;63.37;101977.92;1701180;82;25817;-71
2022/03/02 07:02:51;;;;;;;;;;;;;;;-2.93;63.36;101979.02;1697308;82;26464;-71
2022/03/02 07:05:18;;;;;;;;;;;;;;;-2.87;63.43;101979.21;1696076;83;84824;-71
2022/03/02 07:07:45;;;;;;;;;;;;;;;-2.77;63.45;101983.02;1707971;82;28088;-70
2022/03/02 07:10:10;;;;;;;;;;;;;;;-2.70;63.50;101983.27;1705152;82;83992;-71
2022/03/02 07:12:37;;;;;;;;;;;;;;;-2.60;63.49;101980.94;1711472;82;25806;-72
2022/03/02 07:15:04;;;;;;;;;;;;;;;-2.52;63.50;101977.67;1665057;83;85059;-73
2022/03/02 07:17:33;;;;;;;;;;;;;;;-2.45;63.53;101974.39;1698799;83;25780;-74
2022/03/02 07:20:00;;;;;;;;;;;;;;;-2.37;63.52;101976.83;1691852;83;27387;-70
2022/03/02 07:22:35;;;;;;;;;;;;;;;-2.30;63.53;101966.98;1692990;83;84726;-71
2022/03/02 07:25:07;;;;;;;;;;;;;;;-2.22;63.55;101964.58;1680436;83;25773;-71
2022/03/02 07:27:38;;;;;;;;;;;;;;;-2.13;63.56;101961.34;1682105;82;85299;-70
2022/03/02 07:30:06;;;;;;;;;;;;;;;-2.06;63.56;101960.25;1709699;82;25831;-71
2022/03/02 07:32:33;;;;;;;;;;;;;;;-1.99;63.52;101960.89;1707867;82;27325;-69
2022/03/02 07:35:01;;;;;;;;;;;;;;;-1.91;63.53;101963.73;1666671;83;84801;-68
2022/03/02 07:37:28;;;;;;;;;;;;;;;-1.85;63.53;101952.08;1691704;83;25837;-71
2022/03/02 07:39:55;;;;;;;;;;;;;;;-1.76;63.53;101953.66;1696035;82;84185;-68
2022/03/02 07:42:21;;;;;;;;;;;;;;;-1.67;63.54;101951.70;1697833;83;25903;-69
2022/03/02 07:44:48;;;;;;;;;;;;;;;-1.57;63.49;101958.09;1697317;83;27485;-70
2022/03/02 07:47:14;;;;;;;;;;;;;;;-1.48;63.49;101951.77;1691915;83;84573;-70
2022/03/02 07:49:40;;;;;;;;;;;;;;;-1.41;63.49;101953.29;1695497;83;25824;-74
2022/03/02 07:52:06;;;;;;;;;;;;;;;-1.35;63.48;101944.67;1705972;82;84152;-69
2022/03/02 07:54:35;;;;;;;;;;;;;;;-1.27;63.49;101945.75;1711783;82;25299;-69
2022/03/02 07:57:01;;;;;;;;;;;;;;;-1.21;63.48;101933.19;1675535;83;85037;-70
2022/03/02 07:59:31;;;;;;;;;;;;;;;-1.16;63.44;101929.81;1708811;82;25739;-69
2022/03/02 08:01:57;;;;;;;;;;;;;;;-1.09;63.47;101933.48;1710981;82;25863;-69
2022/03/02 08:04:23;;;;;;;;;;;;;;;-1.03;63.47;101933.21;1704292;82;84593;-69
2022/03/02 08:06:51;;;;;;;;;;;;;;;-0.94;63.44;101931.66;1663733;83;25861;-69
2022/03/02 08:09:16;;;;;;;;;;;;;;;-0.88;63.42;101934.01;1695205;83;84353;-69
2022/03/02 08:11:42;;;;;;;;;;;;;;;-0.79;63.38;101930.70;1693547;83;26755;-70
2022/03/02 08:14:08;;;;;;;;;;;;;;;-0.73;63.33;101927.78;1702660;82;26729;-71
2022/03/02 08:16:34;;;;;;;;;;;;;;;-0.62;63.33;101932.41;1700599;82;84921;-71
2022/03/02 08:19:01;;;;;;;;;;;;;;;-0.54;63.29;101938.31;1701581;83;26440;-71
2022/03/02 08:21:29;;;;;;;;;;;;;;;-0.46;63.24;101934.10;1700263;82;84997;-71
2022/03/02 08:23:58;;;;;;;;;;;;;;;-0.36;63.18;101936.08;1704090;83;26424;-70
2022/03/02 08:26:25;;;;;;;;;;;;;;;-0.27;63.15;101930.55;1704971;82;26156;-71
2022/03/02 08:28:56;;;;;;;;;;;;;;;-0.19;63.14;101931.60;1700777;83;84731;-71
2022/03/02 08:31:23;;;;;;;;;;;;;;;-0.12;63.11;101921.22;1687264;83;25548;-71
2022/03/02 08:33:50;;;;;;;;;;;;;;;-0.04;63.09;101906.88;1711882;83;84831;-70
2022/03/02 08:36:16;;;;;;;;;;;;;;;0.05;63.02;101914.05;1714007;82;25770;-71
2022/03/02 08:38:42;;;;;;;;;;;;;;;0.12;62.93;101907.61;1712295;83;25680;-71
2022/03/02 08:41:12;;;;;;;;;;;;;;;0.22;62.89;101900.77;1716289;82;83728;-71
2022/03/02 08:43:38;;;;;;;;;;;;;;;0.28;62.86;101894.28;1714740;82;25918;-70
2022/03/02 08:46:05;;;;;;;;;;;;;;;0.36;62.81;101893.11;1711515;82;83800;-71
2022/03/02 08:48:30;;;;;;;;;;;;;;;0.45;62.77;101890.64;1717762;82;25822;-71
2022/03/02 08:50:59;;;;;;;;;;;;;;;0.53;62.75;101889.03;1713085;82;26030;-71
2022/03/02 08:53:26;;;;;;;;;;;;;;;0.58;62.67;101896.16;1712363;82;84670;-71
2022/03/02 08:55:53;;;;;;;;;;;;;;;0.63;62.64;101894.48;1714988;82;25696;-71
2022/03/02 08:58:20;;;;;;;;;;;;;;;0.69;62.64;101892.38;1709062;83;84780;-71
2022/03/02 09:00:46;;;;;;;;;;;;;;;0.78;62.62;101900.45;1708754;82;25610;-71
2022/03/02 09:03:14;;;;;;;;;;;;;;;0.85;62.51;101889.13;1709761;82;84835;-72
2022/03/02 09:05:40;;;;;;;;;;;;;;;0.89;62.46;101898.88;1714004;82;25840;-72
2022/03/02 09:08:07;;;;;;;;;;;;;;;0.95;62.44;101890.17;1694667;83;25950;-71
2022/03/02 09:10:33;;;;;;;;;;;;;;;1.00;62.38;101884.96;1727454;81;83740;-71
2022/03/02 09:12:59;;;;;;;;;;;;;;;1.08;62.31;101884.22;1719587;81;26266;-71
2022/03/02 09:15:26;;;;;;;;;;;;;;;1.15;62.21;101883.88;1712677;82;84884;-71
2022/03/02 09:17:52;;;;;;;;;;;;;;;1.22;62.22;101884.42;1708954;82;26514;-71
2022/03/02 09:20:18;;;;;;;;;;;;;;;1.28;62.19;101881.87;1681342;83;26800;-73
2022/03/02 09:22:44;;;;;;;;;;;;;;;1.37;62.04;101883.75;1707435;82;84942;-73
2022/03/02 09:25:10;;;;;;;;;;;;;;;1.41;61.98;101883.81;1712232;82;25794;-73
2022/03/02 09:27:37;;;;;;;;;;;;;;;1.46;61.86;101876.84;1708872;82;85322;-72
2022/03/02 09:30:06;;;;;;;;;;;;;;;1.54;61.79;101868.58;1713639;82;26194;-71
2022/03/02 09:32:33;;;;;;;;;;;;;;;1.60;61.72;101871.30;1712297;82;25739;-73
2022/03/02 09:34:59;;;;;;;;;;;;;;;1.68;61.83;101875.80;1666552;84;84710;-73
2022/03/02 09:37:27;;;;;;;;;;;;;;;1.76;61.58;101872.82;1694107;83;25910;-74
2022/03/02 09:39:53;;;;;;;;;;;;;;;1.83;61.49;101865.41;1691618;83;84579;-73
2022/03/02 09:42:30;;;;;;;;;;;;;;;1.92;61.36;101872.12;1693612;83;26390;-72
2022/03/02 09:45:10;;;;;;;;;;;;;;;2.00;61.30;101882.80;1700306;82;26020;-75
2022/03/02 09:47:48;;;;;;;;;;;;;;;2.10;61.24;101876.74;1680262;83;84066;-74
2022/03/02 09:50:17;;;;;;;;;;;;;;;2.18;60.98;101873.31;1705475;82;25807;-74
2022/03/02 09:52:45;;;;;;;;;;;;;;;2.22;60.85;101878.19;1666801;83;83847;-73
2022/03/02 09:55:14;;;;;;;;;;;;;;;2.27;60.75;101869.44;1692725;83;26871;-73
2022/03/02 09:57:46;;;;;;;;;;;;;;;2.31;60.68;101866.82;1694399;83;83970;-74
2022/03/02 10:00:14;;;;;;;;;;;;;;;2.32;60.74;101865.95;1683685;83;27457;-72
2022/03/02 10:02:42;;;;;;;;;;;;;;;2.33;60.26;101862.00;1683127;83;25755;-75
2022/03/02 10:05:11;;;;;;;;;;;;;;;2.39;60.21;101855.44;1677183;83;83864;-72
2022/03/02 10:07:56;;;;;;;;;;;;;;;2.44;60.07;101857.69;1692770;83;25862;-72
2022/03/02 10:10:23;;;;;;;;;;;;;;;2.48;59.97;101854.64;1707463;82;83804;-73
2022/03/02 10:12:53;;;;;;;;;;;;;;;2.52;60.00;101854.67;1708974;82;27525;-71
2022/03/02 10:15:19;;;;;;;;;;;;;;;2.57;59.79;101860.02;1694798;83;84084;-73
2022/03/02 10:17:51;;;;;;;;;;;;;;;2.63;59.77;101854.73;1671082;84;26479;-74
2022/03/02 10:20:19;;;;;;;;;;;;;;;2.70;59.66;101847.30;1701367;83;25863;-73
2022/03/02 10:23:05;;;;;;;;;;;;;;;2.80;59.56;101851.79;1681446;84;83794;-73
2022/03/02 10:25:43;;;;;;;;;;;;;;;2.88;59.50;101845.23;1668543;84;27336;-72
2022/03/02 10:28:11;;;;;;;;;;;;;;;2.96;59.32;101840.88;1696406;82;83618;-76
2022/03/02 10:30:39;;;;;;;;;;;;;;;3.00;59.15;101836.48;1664742;84;25960;-74
2022/03/02 10:33:22;;;;;;;;;;;;;;;3.06;59.02;101833.87;1696129;83;26326;-76
2022/03/02 10:35:53;;;;;;;;;;;;;;;3.09;59.08;101831.24;1692241;82;83489;-74
2022/03/02 10:38:40;;;;;;;;;;;;;;;3.12;59.01;101828.17;1666409;84;27312;-74
2022/03/02 10:41:08;;;;;;;;;;;;;;;3.16;59.02;101818.48;1697748;83;83867;-75
2022/03/02 10:43:46;;;;;;;;;;;;;;;3.24;58.75;101815.44;1665740;84;25749;-75
2022/03/02 10:46:13;;;;;;;;;;;;;;;3.36;58.91;101817.27;1693658;82;84671;-73
2022/03/02 10:48:52;;;;;;;;;;;;;;;3.52;58.77;101817.34;1665774;84;26005;-69
2022/03/02 10:51:20;;;;;;;;;;;;;;;3.61;58.28;101813.84;1691530;83;28096;-72
2022/03/02 10:53:50;;;;;;;;;;;;;;;3.62;57.99;101812.97;1698498;83;84089;-72
2022/03/02 10:56:17;;;;;;;;;;;;;;;3.66;57.63;101808.56;1681893;83;25931;-72
2022/03/02 10:58:45;;;;;;;;;;;;;;;3.74;57.69;101813.45;1658442;84;84814;-73
2022/03/02 11:01:11;;;;;;;;;;;;;;;3.78;57.48;101807.27;1700661;83;25709;-72
2022/03/02 11:03:37;;;;;;;;;;;;;;;3.84;57.34;101805.97;1697185;83;85309;-72
2022/03/02 11:06:08;;;;;;;;;;;;;;;3.90;57.28;101796.26;1685721;84;25836;-72
2022/03/02 11:08:36;;;;;;;;;;;;;;;4.01;56.89;101804.68;1666804;84;25862;-72
2022/03/02 11:11:03;;;;;;;;;;;;;;;4.07;56.60;101796.29;1669046;84;84700;-71
2022/03/02 11:13:30;;;;;;;;;;;;;;;4.16;56.44;101799.40;1677017;83;25772;-71
2022/03/02 11:15:59;;;;;;;;;;;;;;;4.24;56.15;101798.53;1700141;83;84745;-71
2022/03/02 11:18:35;;;;;;;;;;;;;;;4.37;56.31;101790.58;1700036;83;25732;-70
2022/03/02 11:21:04;;;;;;;;;;;;;;;4.36;55.90;101788.80;1705395;83;25714;-71
2022/03/02 11:23:33;;;;;;;;;;;;;;;4.44;55.97;101798.54;1702548;83;83799;-72
2022/03/02 11:26:05;;;;;;;;;;;;;;;4.64;55.75;101787.91;1703130;81;25874;-71
2022/03/02 11:28:31;;;;;;;;;;;;;;;4.83;55.63;101780.36;1697051;83;84423;-71
2022/03/02 11:31:05;;;;;;;;;;;;;;;4.96;55.55;101769.72;1702245;83;25986;-70
2022/03/02 11:33:31;;;;;;;;;;;;;;;5.07;55.38;101767.91;1694230;83;84592;-72
2022/03/02 11:36:11;;;;;;;;;;;;;;;5.16;55.13;101770.55;1701180;83;26469;-72
2022/03/02 11:38:39;;;;;;;;;;;;;;;5.30;55.11;101768.69;1697329;83;25763;-70
2022/03/02 11:41:05;;;;;;;;;;;;;;;5.39;55.02;101756.69;1702203;83;84788;-73
2022/03/02 11:43:32;;;;;;;;;;;;;;;5.41;54.70;101752.69;1702799;83;25998;-73
2022/03/02 11:46:00;;;;;;;;;;;;;;;5.44;54.58;101756.67;1697378;83;84791;-71
2022/03/02 11:48:29;;;;;;;;;;;;;;;5.48;54.46;101751.33;1707659;83;26348;-71
2022/03/02 11:51:11;;;;;;;;;;;;;;;5.52;54.24;101743.77;1712935;83;26460;-71
2022/03/02 11:53:45;;;;;;;;;;;;;;;5.68;54.14;101741.03;1712658;83;84583;-71
2022/03/02 11:56:15;;;;;;;;;;;;;;;5.84;53.94;101740.05;1711240;83;25892;-72
2022/03/02 11:59:05;;;;;;;;;;;;;;;5.83;53.58;101740.94;1705591;83;85331;-72
2022/03/02 12:01:51;;;;;;;;;;;;;;;5.84;53.44;101734.72;1713969;83;25738;-71
2022/03/02 12:04:17;;;;;;;;;;;;;;;5.92;53.44;101730.27;1711255;83;85293;-72
2022/03/02 12:06:51;;;;;;;;;;;;;;;5.98;53.07;101724.91;1683358;83;27481;-71
2022/03/02 12:09:29;;;;;;;;;;;;;;;6.08;52.77;101730.59;1681741;83;25884;-71
2022/03/02 12:12:20;;;;;;;;;;;;;;;6.24;52.74;101725.15;1681630;84;83751;-72
2022/03/02 12:14:57;;;;;;;;;;;;;;;6.34;52.67;101724.17;1671657;82;25766;-72
2022/03/02 12:17:25;;;;;;;;;;;;;;;6.47;52.50;101718.73;1685111;83;83784;-72
2022/03/02 12:19:57;;;;;;;;;;;;;;;6.52;52.18;101710.69;1713869;82;27350;-72
2022/03/02 12:22:32;;;;;;;;;;;;;;;6.59;52.20;101707.52;1684763;83;84232;-73
2022/03/02 12:25:00;;;;;;;;;;;;;;;6.62;51.55;101707.04;1679487;83;25916;-71
2022/03/02 12:27:27;;;;;;;;;;;;;;;6.69;51.29;101698.09;1684495;83;25798;-71
2022/03/02 12:30:00;;;;;;;;;;;;;;;6.78;50.95;101692.66;1684727;83;83547;-71
2022/03/02 12:32:29;;;;;;;;;;;;;;;6.84;50.57;101694.37;1714803;82;27481;-71
2022/03/02 12:34:54;;;;;;;;;;;;;;;6.78;49.91;101690.44;1710632;82;84598;-71
2022/03/02 12:37:21;;;;;;;;;;;;;;;7.00;50.20;101694.63;1687731;83;25774;-70
2022/03/02 12:39:47;;;;;;;;;;;;;;;7.27;50.29;101684.07;1675854;83;84093;-72
2022/03/02 12:42:14;;;;;;;;;;;;;;;7.48;50.04;101670.44;1680376;83;25761;-71
2022/03/02 12:44:42;;;;;;;;;;;;;;;7.82;49.78;101673.91;1687775;83;27481;-72